Time;durP1;ratioP1;P1;durP2;ratioP2;P2;SDS_P1;SDS_P2;PMS_P1;PMS_P2;Temp;Humidity;BMP_temperature;BMP_pressure;BME280_temperature;BME280_humidity;BME280_pressure;Samples;Min_cycle;Max_cycle;Signal;HPM_P1;HPM_P2
2023/10/17 00:01:32;;;;;;;3.67;1.52;;;7.60;99.90;;;;;;5016227;28;20494;-61
2023/10/17 00:04:14;;;;;;;2.35;1.50;;;7.60;99.90;;;;;;5019722;28;20133;-62
2023/10/17 00:06:39;;;;;;;3.38;1.70;;;7.60;99.90;;;;;;5018397;28;20041;-61
2023/10/17 00:09:07;;;;;;;3.30;1.85;;;7.60;99.90;;;;;;5014774;28;20066;-61
2023/10/17 00:11:45;;;;;;;6.68;1.95;;;7.60;99.90;;;;;;5019781;28;20111;-61
2023/10/17 00:14:15;;;;;;;7.40;3.78;;;7.70;99.90;;;;;;5017257;28;20055;-61
2023/10/17 00:16:41;;;;;;;3.33;1.80;;;7.70;99.90;;;;;;5020122;28;20090;-62
2023/10/17 00:19:09;;;;;;;3.28;1.65;;;7.70;99.90;;;;;;5018303;28;20456;-61
2023/10/17 00:21:39;;;;;;;2.97;1.77;;;7.80;99.90;;;;;;5019255;28;20452;-62
2023/10/17 00:24:09;;;;;;;3.72;1.60;;;7.90;99.90;;;;;;5018318;28;20033;-61
2023/10/17 00:26:39;;;;;;;3.88;2.00;;;7.90;99.90;;;;;;5020107;28;20071;-61
2023/10/17 00:29:08;;;;;;;3.58;1.70;;;8.00;99.90;;;;;;5018574;28;20056;-61
2023/10/17 00:31:37;;;;;;;1.48;1.23;;;8.00;99.90;;;;;;5017017;28;20043;-62
2023/10/17 00:34:13;;;;;;;1.95;1.50;;;8.00;99.90;;;;;;5018598;28;20033;-62
2023/10/17 00:37:00;;;;;;;1.30;1.15;;;8.10;99.90;;;;;;5017068;28;20045;-61
2023/10/17 00:39:36;;;;;;;2.15;1.67;;;8.10;99.90;;;;;;5019707;28;20068;-62
2023/10/17 00:44:33;;;;;;;2.60;1.42;;;8.10;99.90;;;;;;5021838;28;20116;-65
2023/10/17 00:47:04;;;;;;;2.53;1.73;;;8.10;99.90;;;;;;5017645;28;20038;-66
2023/10/17 00:49:40;;;;;;;1.65;1.10;;;8.10;99.90;;;;;;5023461;28;20041;-66
2023/10/17 00:52:15;;;;;;;;;;;8.10;99.90;;;;;;5023572;28;20095;-66
2023/10/17 00:54:42;;;;;;;2.20;1.30;;;8.20;99.90;;;;;;5031811;28;20427;-66
2023/10/17 00:57:09;;;;;;;2.05;1.20;;;8.20;99.90;;;;;;5023875;28;20119;-65
2023/10/17 00:59:36;;;;;;;1.63;1.35;;;8.20;99.90;;;;;;5026060;28;20017;-66
2023/10/17 01:02:06;;;;;;;1.75;1.08;;;8.20;99.90;;;;;;5027110;28;20037;-66
2023/10/17 01:04:33;;;;;;;1.50;1.10;;;8.20;99.90;;;;;;5028421;28;20030;-66
2023/10/17 01:07:05;;;;;;;2.53;1.45;;;8.20;99.90;;;;;;5027284;28;20531;-65
2023/10/17 01:09:34;;;;;;;2.92;1.85;;;8.20;99.90;;;;;;5028509;28;20033;-66
2023/10/17 01:12:01;;;;;;;3.72;1.48;;;8.30;99.90;;;;;;5026658;28;20036;-66
2023/10/17 01:14:30;;;;;;;4.88;1.90;;;8.30;99.90;;;;;;5020694;28;20040;-66
2023/10/17 01:16:57;;;;;;;3.97;1.70;;;8.40;99.90;;;;;;5026535;28;20037;-66
2023/10/17 01:19:23;;;;;;;3.85;1.52;;;8.40;99.90;;;;;;5028360;28;20034;-66
2023/10/17 01:21:49;;;;;;;3.35;1.55;;;8.50;99.90;;;;;;5028173;28;20028;-66
2023/10/17 01:24:16;;;;;;;3.20;1.80;;;8.60;99.90;;;;;;5026781;28;20037;-66
2023/10/17 01:26:46;;;;;;;3.03;1.40;;;8.60;99.90;;;;;;5028266;28;20520;-66
2023/10/17 01:29:12;;;;;;;2.10;1.52;;;8.60;99.90;;;;;;5026771;28;20040;-66
2023/10/17 01:31:42;;;;;;;3.65;1.60;;;8.60;99.90;;;;;;5026785;28;20064;-66
2023/10/17 01:34:08;;;;;;;2.03;1.40;;;8.60;99.90;;;;;;5028365;28;20069;-66
2023/10/17 01:36:37;;;;;;;2.92;2.00;;;8.60;99.90;;;;;;5028327;28;20029;-66
2023/10/17 01:39:08;;;;;;;3.35;1.50;;;8.70;99.90;;;;;;5023808;28;20037;-65
2023/10/17 01:41:35;;;;;;;6.82;1.95;;;8.70;99.90;;;;;;5027422;28;20033;-66
2023/10/17 01:44:01;;;;;;;4.93;2.20;;;8.70;99.90;;;;;;5027782;28;20152;-66
2023/10/17 01:46:30;;;;;;;4.53;1.77;;;8.70;99.90;;;;;;5026196;28;20099;-66
2023/10/17 01:49:10;;;;;;;6.25;1.92;;;8.60;99.90;;;;;;5027568;28;20135;-66
2023/10/17 01:51:36;;;;;;;8.05;1.65;;;8.60;99.90;;;;;;5019724;28;20103;-66
2023/10/17 01:54:08;;;;;;;2.63;1.85;;;8.50;99.90;;;;;;5025883;28;20047;-66
2023/10/17 01:56:39;;;;;;;2.53;1.55;;;8.50;99.90;;;;;;5026052;28;20029;-66
2023/10/17 01:59:17;;;;;;;3.00;1.85;;;8.50;99.90;;;;;;5025967;28;20060;-66
2023/10/17 02:01:44;;;;;;;2.92;1.50;;;8.50;99.90;;;;;;5026256;28;20029;-66
2023/10/17 02:04:15;;;;;;;2.25;1.42;;;8.50;99.90;;;;;;5021942;28;20030;-66
2023/10/17 02:06:42;;;;;;;4.22;2.00;;;8.50;99.90;;;;;;5025800;28;20037;-66
2023/10/17 02:11:50;;;;;;;5.57;1.83;;;8.60;99.90;;;;;;5019503;28;20029;-66
2023/10/17 02:14:16;;;;;;;3.90;1.85;;;8.60;99.90;;;;;;5025649;28;20443;-65
2023/10/17 02:16:43;;;;;;;2.30;1.35;;;8.60;99.90;;;;;;5027177;28;20029;-66
2023/10/17 02:19:10;;;;;;;2.05;1.55;;;8.60;99.90;;;;;;5022272;28;20040;-66
2023/10/17 02:21:39;;;;;;;3.88;1.77;;;8.60;99.90;;;;;;5027187;28;20800;-66
2023/10/17 02:24:08;;;;;;;3.67;2.13;;;8.60;99.90;;;;;;5027291;28;20045;-66
2023/10/17 02:26:56;;;;;;;2.35;1.60;;;8.60;99.90;;;;;;5026916;28;20025;-66
2023/10/17 02:29:26;;;;;;;3.35;1.70;;;8.60;99.90;;;;;;5026990;28;20087;-66
2023/10/17 02:31:55;;;;;;;3.30;1.50;;;8.60;99.90;;;;;;5027224;28;20029;-66
2023/10/17 02:34:22;;;;;;;2.83;1.85;;;8.70;99.90;;;;;;5025166;28;20040;-66
2023/10/17 02:36:52;;;;;;;1.92;1.30;;;8.70;99.90;;;;;;5026585;28;20068;-66
2023/10/17 02:39:20;;;;;;;1.80;1.52;;;8.70;99.90;;;;;;5025148;28;20034;-66
2023/10/17 02:41:47;;;;;;;2.28;1.55;;;8.70;99.90;;;;;;5026523;28;20040;-66
2023/10/17 02:44:18;;;;;;;2.70;1.50;;;8.80;99.90;;;;;;5024847;28;20033;-66
2023/10/17 02:46:45;;;;;;;3.85;1.80;;;8.70;99.90;;;;;;5024351;28;20036;-66
2023/10/17 02:49:13;;;;;;;3.65;2.15;;;8.70;99.90;;;;;;5026936;28;20033;-66
2023/10/17 02:51:43;;;;;;;4.57;1.85;;;8.80;99.90;;;;;;5027330;28;20041;-66
2023/10/17 02:54:14;;;;;;;2.53;1.67;;;8.80;99.90;;;;;;5024182;28;20037;-66
2023/10/17 02:56:46;;;;;;;2.15;1.58;;;8.80;99.90;;;;;;5026694;28;20447;-66
2023/10/17 02:59:13;;;;;;;1.55;1.38;;;8.80;99.90;;;;;;5026401;28;20037;-66
2023/10/17 03:01:40;;;;;;;3.80;1.73;;;8.70;99.90;;;;;;5026582;28;20239;-66
2023/10/17 03:04:09;;;;;;;3.92;1.80;;;8.80;99.90;;;;;;5024530;28;20029;-66
2023/10/17 03:06:42;;;;;;;2.47;1.55;;;8.80;99.90;;;;;;5026434;28;20703;-66
2023/10/17 03:09:32;;;;;;;3.65;1.70;;;8.80;99.90;;;;;;5024875;28;20041;-66
2023/10/17 03:17:07;;;;;;;3.83;1.80;;;8.90;99.90;;;;;;5014518;28;20061;-66
2023/10/17 03:19:34;;;;;;;3.45;1.77;;;9.00;99.90;;;;;;5023524;28;20034;-66
2023/10/17 03:22:18;;;;;;;2.08;1.50;;;9.00;99.90;;;;;;5026071;28;20654;-66
2023/10/17 03:24:44;;;;;;;4.80;1.90;;;8.90;99.90;;;;;;5019547;28;20035;-66
2023/10/17 03:27:23;;;;;;;1.73;1.45;;;8.90;99.90;;;;;;5024430;28;20030;-66
2023/10/17 03:29:50;;;;;;;2.53;1.48;;;8.80;99.90;;;;;;5025816;28;20401;-66
2023/10/17 03:32:16;;;;;;;1.80;1.20;;;8.90;99.90;;;;;;5026013;28;20048;-66
2023/10/17 03:34:45;;;;;;;2.67;1.80;;;8.80;99.90;;;;;;5024514;28;20478;-66
2023/10/17 03:39:59;;;;;;;3.85;1.80;;;8.90;99.90;;;;;;5019726;28;20029;-66
2023/10/17 03:42:45;;;;;;;2.70;1.50;;;8.80;99.90;;;;;;5024430;28;20044;-66
2023/10/17 03:45:16;;;;;;;1.85;1.48;;;8.90;99.90;;;;;;5021865;28;20524;-65
2023/10/17 03:47:47;;;;;;;2.10;1.40;;;8.90;99.90;;;;;;5025482;28;20037;-66
2023/10/17 03:50:31;;;;;;;4.20;1.52;;;8.80;99.90;;;;;;5025270;28;20125;-67
2023/10/17 03:53:14;;;;;;;2.67;1.80;;;8.80;99.90;;;;;;5020435;28;20037;-66
2023/10/17 03:55:45;;;;;;;2.28;1.50;;;8.80;99.90;;;;;;5017487;28;20086;-66
2023/10/17 03:58:25;;;;;;;2.90;2.10;;;8.80;99.90;;;;;;5025382;28;20116;-66
2023/10/17 04:00:52;;;;;;;3.28;1.50;;;8.90;99.90;;;;;;5018579;28;20033;-66
2023/10/17 04:03:21;;;;;;;1.98;1.40;;;8.80;99.90;;;;;;5023653;28;20055;-65
2023/10/17 04:06:00;;;;;;;2.50;1.73;;;8.80;99.90;;;;;;5024314;28;20068;-66
2023/10/17 04:08:26;;;;;;;3.17;1.77;;;8.80;99.90;;;;;;5024632;28;20041;-66
2023/10/17 04:13:37;;;;;;;1.92;1.55;;;8.80;99.90;;;;;;5025013;28;20191;-66
2023/10/17 04:16:17;;;;;;;1.50;1.30;;;8.80;99.90;;;;;;5021989;28;20116;-66
2023/10/17 04:18:48;;;;;;;3.65;1.70;;;8.80;99.90;;;;;;5025089;28;20025;-66
2023/10/17 04:21:27;;;;;;;2.38;1.77;;;8.80;99.90;;;;;;5025450;28;20479;-66
2023/10/17 04:23:55;;;;;;;2.45;2.10;;;8.80;99.90;;;;;;5025028;28;20044;-66
2023/10/17 04:26:27;;;;;;;3.83;2.35;;;8.90;99.90;;;;;;5024787;28;20044;-66
2023/10/17 04:29:00;;;;;;;2.85;2.03;;;8.80;99.90;;;;;;5023205;28;20037;-66
2023/10/17 04:31:28;;;;;;;3.40;1.65;;;8.80;99.90;;;;;;5015833;28;20084;-66
2023/10/17 04:34:07;;;;;;;3.75;2.05;;;8.80;99.90;;;;;;5024979;28;20451;-66
2023/10/17 04:36:37;;;;;;;2.38;1.83;;;8.80;99.90;;;;;;5024723;28;20048;-66
2023/10/17 04:39:18;;;;;;;3.35;1.80;;;8.90;99.90;;;;;;5024904;28;20033;-65
2023/10/17 04:44:16;;;;;;;2.88;1.55;;;8.90;99.90;;;;;;5024402;28;20030;-66
2023/10/17 04:49:36;;;;;;;2.42;1.92;;;8.90;99.90;;;;;;5019131;28;20037;-66
2023/10/17 04:52:08;;;;;;;2.65;1.83;;;8.90;99.90;;;;;;5022413;28;20040;-66
2023/10/17 04:57:05;;;;;;;4.15;2.30;;;9.00;99.90;;;;;;5024772;28;20072;-66
2023/10/17 05:07:34;;;;;;;3.25;2.47;;;9.10;99.90;;;;;;5024778;28;20680;-66
2023/10/17 06:18:52;;;;;;;18.05;7.05;;;9.30;99.90;;;;;;5020832;28;20040;-66
2023/10/17 06:21:19;;;;;;;8.68;4.68;;;9.40;99.90;;;;;;5027327;28;20048;-67
2023/10/17 06:34:18;;;;;;;8.73;3.63;;;9.60;99.90;;;;;;5026829;28;20563;-67
2023/10/17 06:36:49;;;;;;;10.50;4.28;;;9.70;99.90;;;;;;5026907;28;20129;-68
2023/10/17 06:39:18;;;;;;;7.97;4.60;;;9.70;99.90;;;;;;5027002;28;20033;-67
2023/10/17 06:41:46;;;;;;;7.57;3.53;;;9.80;99.90;;;;;;5027055;28;20037;-67
2023/10/17 06:44:21;;;;;;;8.30;3.90;;;9.80;99.90;;;;;;5026861;28;20460;-67
2023/10/17 06:46:55;;;;;;;4.07;3.22;;;9.80;99.90;;;;;;5019663;28;20033;-66
2023/10/17 06:54:42;;;;;;;6.13;3.50;;;10.00;99.90;;;;;;5024596;28;20052;-66
2023/10/17 06:57:19;;;;;;;5.35;3.80;;;10.00;99.90;;;;;;5025085;28;20297;-67
2023/10/17 06:59:52;;;;;;;4.80;3.53;;;10.00;99.90;;;;;;5010747;28;20032;-67
2023/10/17 07:02:28;;;;;;;4.32;3.75;;;10.10;99.90;;;;;;5026247;28;20037;-67
2023/10/17 07:04:55;;;;;;;5.30;3.50;;;10.10;99.90;;;;;;5026387;28;20064;-66
2023/10/17 07:07:31;;;;;;;7.15;3.67;;;10.10;99.90;;;;;;5026370;28;20037;-66
2023/10/17 07:12:43;;;;;;;6.03;3.63;;;10.20;99.90;;;;;;5010183;28;20126;-67
2023/10/17 07:15:18;;;;;;;6.13;3.58;;;10.30;99.90;;;;;;5026117;28;20179;-67
2023/10/17 07:23:19;;;;;;;3.95;2.72;;;10.40;99.90;;;;;;5026034;28;20033;-68
2023/10/17 07:25:49;;;;;;;4.97;3.03;;;10.50;99.90;;;;;;5026307;28;20045;-66
2023/10/17 07:28:15;;;;;;;8.45;3.45;;;10.50;99.90;;;;;;5025989;28;20112;-67
2023/10/17 07:30:53;;;;;;;6.60;3.60;;;10.60;99.90;;;;;;5025576;28;20030;-67
2023/10/17 07:33:21;;;;;;;3.80;2.60;;;10.60;99.90;;;;;;5025925;28;20480;-66
2023/10/17 07:35:56;;;;;;;4.78;3.33;;;10.60;99.90;;;;;;5025441;28;20405;-66
2023/10/17 07:38:27;;;;;;;3.30;2.80;;;10.60;99.90;;;;;;5025958;28;20040;-67
2023/10/17 07:41:09;;;;;;;6.75;2.80;;;10.70;99.90;;;;;;5025777;28;20482;-66
2023/10/17 07:43:35;;;;;;;3.17;2.75;;;10.70;99.90;;;;;;5025767;28;20033;-67
2023/10/17 07:46:15;;;;;;;6.45;2.63;;;10.80;99.90;;;;;;5022992;28;20064;-66
2023/10/17 07:48:48;;;;;;;6.20;3.22;;;10.80;99.90;;;;;;5017623;28;20577;-66
2023/10/17 07:51:15;;;;;;;10.40;5.40;;;10.90;99.90;;;;;;5025570;28;20029;-66
2023/10/17 07:53:48;;;;;;;11.35;7.50;;;10.90;99.90;;;;;;5025616;28;20120;-67
2023/10/17 07:56:21;;;;;;;21.17;10.77;;;11.00;99.90;;;;;;5025556;28;20615;-67
2023/10/17 07:59:08;;;;;;;12.13;7.00;;;11.10;99.90;;;;;;5025583;28;20025;-66
2023/10/17 08:01:44;;;;;;;8.73;4.90;;;11.10;99.90;;;;;;5024512;28;20061;-67
2023/10/17 08:04:24;;;;;;;7.57;3.28;;;11.10;99.90;;;;;;5024972;28;20056;-66
2023/10/17 08:06:50;;;;;;;8.73;3.85;;;11.20;99.90;;;;;;5018970;28;20113;-66
2023/10/17 08:11:52;;;;;;;6.55;2.83;;;11.30;99.90;;;;;;5010713;28;20025;-65
2023/10/17 08:14:22;;;;;;;10.55;6.07;;;11.40;99.90;;;;;;5024850;28;20083;-67
2023/10/17 08:16:49;;;;;;;9.70;5.28;;;11.50;99.90;;;;;;5025101;28;20695;-67
2023/10/17 08:19:16;;;;;;;8.63;3.03;;;11.50;99.90;;;;;;5024783;28;20057;-64
2023/10/17 08:22:09;;;;;;;4.53;2.53;;;11.50;99.90;;;;;;5024462;28;20370;-65
2023/10/17 08:27:13;;;;;;;5.20;2.28;;;11.60;99.90;;;;;;5029591;28;20057;-66
2023/10/17 08:34:59;;;;;;;3.42;2.00;;;11.80;99.90;;;;;;5022522;28;20452;-67
2023/10/17 08:37:30;;;;;;;5.55;2.20;;;11.80;99.90;;;;;;5024641;28;20069;-67
2023/10/17 08:39:59;;;;;;;5.28;2.03;;;11.80;99.90;;;;;;5022898;28;20029;-66
2023/10/17 08:42:36;;;;;;;2.05;1.75;;;11.90;99.90;;;;;;5024390;28;20656;-66
2023/10/17 08:45:04;;;;;;;3.40;1.90;;;11.90;99.90;;;;;;5013604;28;20504;-68
2023/10/17 08:47:30;;;;;;;1.75;1.40;;;12.00;99.90;;;;;;5024125;28;20158;-66
2023/10/17 08:50:03;;;;;;;4.70;2.58;;;12.10;99.90;;;;;;5024479;28;20048;-68
2023/10/17 08:52:34;;;;;;;4.03;1.80;;;12.10;99.90;;;;;;5024456;28;20064;-66
2023/10/17 08:55:02;;;;;;;5.05;1.60;;;12.20;99.90;;;;;;5024326;28;20025;-65
2023/10/17 08:57:29;;;;;;;4.00;1.58;;;12.20;99.90;;;;;;5024387;28;20041;-65
2023/10/17 09:02:43;;;;;;;3.55;1.23;;;12.20;99.90;;;;;;5023546;28;20095;-65
2023/10/17 09:05:17;;;;;;;2.95;1.33;;;12.20;99.30;;;;;;5024465;28;20552;-65
2023/10/17 09:07:45;;;;;;;4.53;1.30;;;12.30;99.30;;;;;;5023897;28;20104;-67
2023/10/17 09:10:39;;;;;;;2.67;1.30;;;12.40;99.00;;;;;;5018159;28;20072;-65
2023/10/17 09:15:57;;;;;;;7.25;2.92;;;12.60;98.50;;;;;;5016875;28;20124;-66
2023/10/17 09:18:29;;;;;;;6.35;3.00;;;12.70;98.20;;;;;;5027985;28;20029;-67
2023/10/17 09:21:03;;;;;;;6.35;2.58;;;12.80;97.70;;;;;;5028394;28;20056;-66
2023/10/17 09:23:30;;;;;;;4.80;1.55;;;12.80;97.70;;;;;;5028067;28;20997;-65
2023/10/17 09:26:01;;;;;;;2.15;1.23;;;12.70;97.40;;;;;;5027991;28;20029;-66
2023/10/17 09:28:28;;;;;;;2.75;1.20;;;12.70;97.30;;;;;;5028237;28;20033;-66
2023/10/17 09:31:12;;;;;;;2.97;1.10;;;12.70;97.30;;;;;;5028101;28;20434;-65
2023/10/17 09:33:52;;;;;;;3.25;1.35;;;12.80;96.90;;;;;;5025570;28;20036;-66
2023/10/17 09:36:18;;;;;;;3.33;1.20;;;12.80;96.60;;;;;;5027918;28;20033;-66
2023/10/17 09:38:45;;;;;;;4.00;0.95;;;12.90;96.20;;;;;;5028116;28;20028;-63
2023/10/17 09:41:18;;;;;;;1.73;1.23;;;12.90;96.20;;;;;;5027557;28;20484;-66
2023/10/17 09:43:53;;;;;;;4.55;1.80;;;13.00;96.20;;;;;;5027458;28;20552;-66
2023/10/17 09:46:25;;;;;;;3.47;1.20;;;13.10;96.20;;;;;;5027674;28;20126;-65
2023/10/17 09:48:52;;;;;;;3.00;1.42;;;13.20;95.60;;;;;;5026517;28;20033;-65
2023/10/17 09:51:22;;;;;;;3.08;1.08;;;13.40;95.40;;;;;;5027585;28;20033;-65
2023/10/17 09:53:53;;;;;;;8.65;3.88;;;13.50;95.50;;;;;;5025521;28;20061;-66
2023/10/17 09:56:28;;;;;;;3.33;1.17;;;13.50;95.60;;;;;;5024499;28;20417;-65
2023/10/17 09:59:05;;;;;;;21.70;11.53;;;13.50;95.20;;;;;;5019743;28;20033;-66
2023/10/17 10:01:31;;;;;;;3.92;1.60;;;13.60;95.30;;;;;;5022100;28;20034;-66
2023/10/17 10:04:01;;;;;;;6.20;3.58;;;13.70;95.00;;;;;;5020629;28;20375;-66
2023/10/17 10:06:32;;;;;;;10.25;5.15;;;13.70;94.90;;;;;;5027106;28;20041;-66
2023/10/17 10:08:59;;;;;;;9.07;7.22;;;13.70;94.60;;;;;;5023304;28;20112;-66
2023/10/17 10:12:01;;;;;;;6.50;2.95;;;13.80;94.40;;;;;;5021757;28;20033;-66
2023/10/17 10:14:27;;;;;;;5.60;1.85;;;13.80;94.70;;;;;;5024308;28;20520;-66
2023/10/17 10:16:54;;;;;;;6.03;4.82;;;13.80;94.50;;;;;;5026675;28;20037;-66
2023/10/17 10:19:21;;;;;;;3.25;2.90;;;13.80;94.70;;;;;;5026755;28;20556;-65
2023/10/17 10:22:00;;;;;;;5.88;2.75;;;13.90;94.70;;;;;;5026905;28;20037;-65
2023/10/17 10:24:28;;;;;;;4.20;3.50;;;14.00;94.60;;;;;;5026507;28;20116;-65
2023/10/17 10:27:24;;;;;;;2.15;1.92;;;14.00;94.00;;;;;;5026659;28;20101;-65
2023/10/17 10:30:29;;;;;;;5.07;1.50;;;14.00;94.50;;;;;;5020657;28;20144;-65
2023/10/17 10:32:57;;;;;;;4.18;1.35;;;14.10;94.50;;;;;;5026408;28;20033;-66
2023/10/17 10:35:23;;;;;;;4.22;1.20;;;14.10;94.40;;;;;;5027007;28;20037;-66
2023/10/17 10:37:54;;;;;;;1.83;1.00;;;14.10;93.20;;;;;;5026993;28;20044;-66
2023/10/17 10:40:30;;;;;;;2.33;1.00;;;14.10;93.20;;;;;;5026501;28;20037;-66
2023/10/17 10:43:01;;;;;;;5.30;1.58;;;14.10;93.30;;;;;;5023882;28;20021;-65
2023/10/17 10:45:32;;;;;;;6.43;3.22;;;14.10;93.10;;;;;;5026544;28;20040;-66
2023/10/17 10:47:59;;;;;;;7.15;3.20;;;14.10;93.30;;;;;;5026511;28;20032;-65
2023/10/17 10:50:29;;;;;;;2.33;1.70;;;14.10;93.40;;;;;;5025675;28;20489;-66
2023/10/17 10:52:56;;;;;;;3.92;2.50;;;14.10;93.80;;;;;;5026239;28;20030;-65
2023/10/17 10:55:25;;;;;;;6.97;3.65;;;14.10;93.40;;;;;;5026476;28;20034;-65
2023/10/17 10:57:52;;;;;;;7.80;3.42;;;14.10;93.40;;;;;;5022536;28;20064;-66
2023/10/17 11:00:18;;;;;;;8.57;4.13;;;14.10;93.70;;;;;;5026126;28;20121;-66
2023/10/17 11:02:44;;;;;;;2.60;1.80;;;14.10;93.50;;;;;;5026078;28;20108;-66
2023/10/17 11:05:14;;;;;;;4.75;1.48;;;14.10;92.90;;;;;;5026286;28;20101;-66
2023/10/17 11:07:41;;;;;;;3.28;1.25;;;14.10;93.20;;;;;;5026360;28;20076;-66
2023/10/17 11:10:11;;;;;;;3.90;1.25;;;14.10;93.50;;;;;;5025434;28;20037;-66
2023/10/17 11:12:41;;;;;;;2.95;1.67;;;14.20;93.50;;;;;;5025454;28;20079;-65
2023/10/17 11:15:11;;;;;;;2.97;1.10;;;14.30;92.90;;;;;;5025616;28;20064;-66
2023/10/17 11:17:38;;;;;;;2.50;1.30;;;14.30;92.80;;;;;;5024430;28;20056;-66
2023/10/17 11:20:17;;;;;;;4.22;1.38;;;14.30;92.20;;;;;;5025521;28;20029;-67
2023/10/17 11:22:44;;;;;;;9.40;3.47;;;14.30;92.00;;;;;;5022956;28;20140;-67
2023/10/17 11:25:26;;;;;;;6.07;2.08;;;14.40;92.10;;;;;;5025580;28;20075;-67
2023/10/17 11:28:07;;;;;;;4.90;1.30;;;14.40;92.00;;;;;;5021794;28;20037;-66
2023/10/17 11:30:42;;;;;;;2.65;1.50;;;14.30;91.80;;;;;;5024968;28;20041;-68
2023/10/17 11:33:11;;;;;;;5.78;1.80;;;14.40;91.70;;;;;;5019732;28;20445;-67
2023/10/17 11:35:58;;;;;;;1.85;1.10;;;14.40;91.70;;;;;;5024986;28;20041;-67
2023/10/17 11:38:46;;;;;;;1.98;1.00;;;14.40;90.80;;;;;;5024526;28;20029;-67
2023/10/17 11:41:15;;;;;;;3.45;0.90;;;14.50;91.10;;;;;;5021602;28;20025;-67
2023/10/17 11:43:54;;;;;;;0.73;0.65;;;14.60;89.60;;;;;;5023849;28;20025;-67
2023/10/17 11:46:33;;;;;;;2.92;1.00;;;14.60;89.00;;;;;;5023326;28;20067;-67
2023/10/17 11:49:20;;;;;;;3.35;0.80;;;14.70;88.80;;;;;;5019160;28;20756;-67
2023/10/17 11:52:00;;;;;;;1.42;0.43;;;14.90;85.10;;;;;;5022684;28;20038;-67
2023/10/17 11:54:27;;;;;;;3.10;0.40;;;15.00;82.20;;;;;;5018205;28;20110;-67
2023/10/17 11:56:54;;;;;;;0.20;0.20;;;15.10;80.10;;;;;;5022612;28;20087;-67
2023/10/17 11:59:20;;;;;;;0.88;0.30;;;15.10;80.80;;;;;;5024953;28;20791;-66
2023/10/17 12:01:53;;;;;;;1.40;0.52;;;15.00;79.00;;;;;;5013161;28;20041;-67
2023/10/17 12:04:19;;;;;;;1.13;0.45;;;15.00;79.60;;;;;;5021855;28;20056;-67
2023/10/17 12:06:49;;;;;;;0.65;0.20;;;14.90;81.60;;;;;;5024912;28;20151;-67
2023/10/17 12:09:17;;;;;;;0.40;0.15;;;14.80;81.10;;;;;;5021168;28;20038;-66
2023/10/17 12:11:47;;;;;;;1.25;0.47;;;14.70;81.80;;;;;;5017043;28;20040;-67
2023/10/17 12:14:20;;;;;;;0.65;0.35;;;14.60;81.00;;;;;;5024026;28;20045;-67
2023/10/17 12:16:49;;;;;;;0.52;0.43;;;14.50;81.70;;;;;;5018751;28;20575;-67
2023/10/17 12:19:17;;;;;;;0.73;0.35;;;14.40;79.80;;;;;;5024994;28;20053;-67
2023/10/17 12:21:49;;;;;;;1.95;0.70;;;14.40;80.10;;;;;;5018378;28;20026;-67
2023/10/17 12:24:24;;;;;;;1.55;0.75;;;14.40;82.10;;;;;;5021462;28;20473;-67
2023/10/17 12:26:50;;;;;;;0.43;0.40;;;14.40;81.70;;;;;;5024475;28;20052;-67
2023/10/17 12:29:17;;;;;;;4.20;1.35;;;14.40;78.30;;;;;;5020332;28;20036;-68
2023/10/17 12:31:43;;;;;;;3.35;1.95;;;14.30;80.40;;;;;;5018382;28;20052;-67
2023/10/17 12:34:09;;;;;;;5.75;3.13;;;14.40;82.00;;;;;;5020992;28;20056;-67
2023/10/17 12:36:36;;;;;;;11.48;4.43;;;14.40;80.50;;;;;;5024230;28;20312;-67
2023/10/17 12:39:03;;;;;;;10.18;4.43;;;14.40;81.00;;;;;;5022817;28;20030;-67
2023/10/17 12:41:33;;;;;;;7.53;3.70;;;14.40;81.30;;;;;;5022472;28;20038;-67
2023/10/17 12:44:00;;;;;;;3.08;1.60;;;14.40;82.80;;;;;;5018413;28;20038;-67
2023/10/17 12:46:25;;;;;;;2.25;1.25;;;14.50;82.00;;;;;;5019911;28;20072;-67
2023/10/17 12:48:52;;;;;;;1.15;0.75;;;14.50;82.40;;;;;;5024611;28;20470;-67
2023/10/17 12:51:20;;;;;;;3.70;1.70;;;14.50;82.40;;;;;;5023566;28;20703;-67
2023/10/17 12:53:49;;;;;;;2.97;1.30;;;14.50;80.90;;;;;;5024227;28;20033;-67
2023/10/17 12:56:17;;;;;;;1.45;0.65;;;14.50;81.40;;;;;;5022539;28;20047;-67
2023/10/17 12:58:44;;;;;;;3.47;2.92;;;14.50;79.80;;;;;;5022703;28;20067;-67
2023/10/17 13:01:12;;;;;;;2.67;1.50;;;14.40;79.50;;;;;;5022225;28;20033;-67
2023/10/17 13:03:38;;;;;;;4.40;3.17;;;14.40;79.20;;;;;;5024357;28;20374;-67
2023/10/17 13:06:09;;;;;;;4.60;2.20;;;14.40;81.10;;;;;;5023835;28;20030;-67
2023/10/17 13:08:35;;;;;;;2.42;0.73;;;14.40;82.40;;;;;;5022976;28;20371;-67
2023/10/17 13:11:02;;;;;;;0.95;0.60;;;14.40;78.00;;;;;;5024221;28;20048;-67
2023/10/17 13:13:30;;;;;;;3.05;0.60;;;14.40;79.10;;;;;;5023310;28;20565;-67
2023/10/17 13:15:57;;;;;;;3.97;0.68;;;14.30;77.90;;;;;;5017334;28;20057;-67
2023/10/17 13:18:29;;;;;;;1.55;0.82;;;14.30;79.10;;;;;;5017566;28;20034;-67
2023/10/17 13:21:02;;;;;;;2.20;0.70;;;14.30;77.90;;;;;;5019889;28;20029;-67
2023/10/17 13:23:28;;;;;;;0.60;0.60;;;14.30;77.50;;;;;;5008162;28;20127;-67
2023/10/17 13:25:54;;;;;;;1.58;0.50;;;14.20;77.90;;;;;;5018971;28;20029;-67
2023/10/17 13:28:20;;;;;;;1.70;0.40;;;14.30;78.10;;;;;;5020650;28;20545;-66
2023/10/17 13:30:46;;;;;;;0.55;0.50;;;14.20;77.60;;;;;;5021588;28;20704;-67
2023/10/17 13:33:12;;;;;;;1.05;0.55;;;14.20;77.90;;;;;;5020596;28;20029;-67
2023/10/17 13:35:40;;;;;;;1.75;0.43;;;14.20;80.30;;;;;;5023386;28;20036;-67
2023/10/17 13:38:06;;;;;;;4.88;1.63;;;14.30;79.50;;;;;;5020749;28;20037;-67
2023/10/17 13:40:32;;;;;;;1.33;0.98;;;14.30;76.90;;;;;;5024022;28;20079;-68
2023/10/17 13:43:04;;;;;;;0.70;0.70;;;14.30;78.40;;;;;;5023530;28;20931;-67
2023/10/17 13:45:37;;;;;;;1.30;0.85;;;14.30;78.10;;;;;;5023201;28;20045;-67
2023/10/17 13:48:03;;;;;;;0.60;0.52;;;14.30;75.20;;;;;;5023706;28;20071;-67
2023/10/17 13:50:30;;;;;;;2.05;0.70;;;14.30;75.70;;;;;;5023486;28;20065;-67
2023/10/17 13:53:06;;;;;;;2.60;0.60;;;14.30;77.40;;;;;;5023366;28;20041;-67
2023/10/17 13:55:38;;;;;;;1.33;0.52;;;14.30;77.50;;;;;;5022869;28;20034;-67
2023/10/17 13:58:04;;;;;;;1.67;0.40;;;14.30;78.30;;;;;;5018859;28;20044;-67
2023/10/17 14:00:43;;;;;;;0.65;0.50;;;14.30;74.80;;;;;;5011390;28;20030;-67
2023/10/17 14:03:13;;;;;;;1.55;0.40;;;14.30;76.20;;;;;;5023151;28;20045;-67
2023/10/17 14:05:47;;;;;;;3.60;0.47;;;14.20;76.10;;;;;;5015595;28;20053;-67
2023/10/17 14:08:14;;;;;;;1.25;0.45;;;14.10;76.30;;;;;;5022140;28;20121;-67
2023/10/17 14:10:46;;;;;;;1.92;0.50;;;14.10;76.60;;;;;;5018123;28;20029;-67
2023/10/17 14:13:12;;;;;;;0.52;0.35;;;14.10;79.80;;;;;;5024645;28;20051;-67
2023/10/17 14:15:39;;;;;;;1.83;0.60;;;14.10;80.70;;;;;;5026925;28;20061;-67
2023/10/17 14:18:14;;;;;;;1.48;0.60;;;14.10;82.00;;;;;;5027047;28;20029;-67
2023/10/17 14:23:26;;;;;;;3.30;0.73;;;14.10;83.40;;;;;;5027195;28;20067;-67
2023/10/17 14:26:09;;;;;;;1.58;0.63;;;14.10;82.20;;;;;;5027111;28;20029;-67
2023/10/17 14:28:36;;;;;;;1.60;0.50;;;14.00;81.10;;;;;;5024011;28;20040;-67
2023/10/17 14:31:03;;;;;;;1.05;0.60;;;14.00;82.00;;;;;;5026748;28;20113;-67
2023/10/17 14:33:32;;;;;;;0.65;0.47;;;13.90;81.30;;;;;;5026265;28;20033;-67
2023/10/17 14:36:05;;;;;;;0.60;0.40;;;13.80;82.40;;;;;;5026311;28;20677;-67
2023/10/17 14:38:34;;;;;;;2.53;0.55;;;13.80;82.20;;;;;;5026657;28;20021;-65
2023/10/17 14:41:10;;;;;;;0.30;0.30;;;13.80;82.40;;;;;;5018665;28;20124;-67
2023/10/17 14:43:36;;;;;;;1.60;0.47;;;13.80;79.10;;;;;;5025891;28;20033;-67
2023/10/17 14:46:02;;;;;;;1.98;0.43;;;13.70;81.40;;;;;;5021754;28;20048;-66
2023/10/17 14:48:30;;;;;;;0.90;0.40;;;13.70;81.70;;;;;;5024441;28;20163;-67
2023/10/17 14:50:55;;;;;;;1.95;0.50;;;13.60;82.70;;;;;;5022451;28;20036;-67
2023/10/17 14:53:21;;;;;;;0.55;0.50;;;13.60;84.30;;;;;;5026086;28;20026;-67
2023/10/17 14:55:57;;;;;;;1.65;0.55;;;13.50;85.20;;;;;;5018925;28;20029;-67
2023/10/17 14:58:24;;;;;;;0.40;0.38;;;13.50;86.10;;;;;;5021398;28;20650;-63
2023/10/17 15:00:52;;;;;;;0.60;0.50;;;13.50;86.80;;;;;;5019489;28;20028;-63
2023/10/17 15:03:19;;;;;;;0.60;0.40;;;13.40;87.80;;;;;;5020949;28;20042;-63
2023/10/17 15:05:44;;;;;;;0.82;0.43;;;13.40;88.70;;;;;;5018634;28;20029;-63
2023/10/17 15:08:11;;;;;;;0.55;0.40;;;13.40;90.10;;;;;;5021584;28;20098;-63
2023/10/17 15:10:40;;;;;;;0.65;0.40;;;13.30;90.60;;;;;;5018258;28;20029;-63
2023/10/17 15:13:09;;;;;;;0.43;0.40;;;13.30;90.90;;;;;;5021941;28;20486;-63
2023/10/17 15:15:36;;;;;;;1.20;0.60;;;13.20;91.20;;;;;;5017508;28;20056;-63
2023/10/17 15:18:04;;;;;;;1.00;0.90;;;13.10;90.80;;;;;;5023261;28;20087;-63
2023/10/17 15:20:30;;;;;;;0.93;0.70;;;13.10;90.50;;;;;;5016717;28;20042;-63
2023/10/17 15:22:58;;;;;;;3.42;0.93;;;13.10;90.50;;;;;;5023648;28;20025;-64
2023/10/17 15:25:23;;;;;;;2.00;0.88;;;13.10;90.70;;;;;;5015911;28;20025;-63
2023/10/17 15:27:50;;;;;;;1.20;0.60;;;13.10;90.70;;;;;;5022275;28;20037;-63
2023/10/17 15:30:18;;;;;;;1.65;0.57;;;13.00;90.40;;;;;;5015135;28;20053;-63
2023/10/17 15:32:45;;;;;;;1.15;0.55;;;13.00;90.40;;;;;;5019589;28;20453;-63